< < Back
Terminal Aerodrome Forecast


Current Version              Previous Versions:   1  2  3  4  5  6  7  8  9  

Terminal Aerodrome Forecast

020
FTUS44 KOHX 271727
TAFBNA
TAF
KBNA 271727Z 2718/2818 19011G20KT P6SM BKN250
     FM280000 16005KT P6SM BKN250
     FM281200 19010KT P6SM SCT050 OVC120=

Latest METAR

261
SAUS70 KWBC 280400 RRL
MTRBNA
METAR KBNA 280353Z 15008KT 10SM FEW055 BKN150 26/17 A3002 RMK AO2 LTG
DSNT NE SLP156 T02560167


USA.gov is the U.S. government's official web portal to all federal, state and local government web resources and services.